CSUN Campus Station - National Weather Service Data Page - PST Time




                Date      RH     Dew  Seasonal     Current   Max Air   Min Air    Wind    Wind    Wind    Gust     Bar    Rain
                Time       %   Point      Rain    Air Temp     Since     Since   Speed    Gust     Dir     Dir   Press   Total
                               Deg F    Inches       Deg F  Midnight  Midnight     MPH     MPH                      mb  Inches
------------------------------------------------------------------------------------------------------------------------------
    07/01/2015 00:00      35    46.8      9.01        76.3      97.9      69.4       1       2     148     171    1010    0.00
    07/01/2015 00:10      33    45.9      9.01        76.9      77.2      76.5       2       2     142     117    1010    0.00
    07/01/2015 00:20      34    46.1      9.01        76.6      77.2      76.0       0       2     157     178    1010    0.00
    07/01/2015 00:30      34    45.8      9.01        76.0      77.2      75.8       0       2     138     141    1010    0.00
    07/01/2015 00:40      37    45.8      9.01        75.7      77.2      75.3       0       0       0     146    1010    0.00
    07/01/2015 00:50      36    46.4      9.01        74.8      77.2      74.5       0       1     133     135    1010    0.00
    07/01/2015 01:00      38    47.9      9.01        74.9      77.2      74.5       0       2      64      69    1010    0.00
    07/01/2015 01:10      44    49.0      9.01        74.6      77.2      74.3       0       2      84      89    1010    0.00
    07/01/2015 01:20      46    50.5      9.01        74.4      77.2      74.0       0       2      62      39    1010    0.00
    07/01/2015 01:30      46    50.7      9.01        73.8      77.2      73.2       0       1      14      18    1010    0.00
    07/01/2015 01:40      48    51.9      9.01        73.3      77.2      73.0       0       0       0     295    1010    0.00
    07/01/2015 01:50      51    53.0      9.01        73.0      77.2      72.7       0       0       0      90    1010    0.00
    07/01/2015 02:00      52    53.3      9.01        72.5      77.2      72.2       0       0       0     176    1010    0.00
    07/01/2015 02:10      51    53.9      9.01        72.8      77.2      72.2       0       2      61      70    1010    0.00
    07/01/2015 02:20      51    54.2      9.01        73.0      77.2      72.2       2       3      76      87    1010    0.00
    07/01/2015 02:30      52    54.5      9.01        73.3      77.2      72.2       2       4      63      55    1011    0.00
    07/01/2015 02:40      51    54.5      9.01        73.3      77.2      72.2       2       4      60      77    1011    0.00
    07/01/2015 02:50      51    54.3      9.01        73.3      77.2      72.2       3       5      76      86    1011    0.00
    07/01/2015 03:00      50    53.7      9.01        73.2      77.2      72.2       3       7      78      40    1011    0.00
    07/01/2015 03:10      49    53.0      9.01        73.0      77.2      72.2       3       7      75      50    1012    0.00
    07/01/2015 03:20      49    52.9      9.01        73.0      77.2      72.2       4       8      72      60    1012    0.00
    07/01/2015 03:30      50    53.2      9.01        72.9      77.2      72.2       2       6      74      86    1012    0.00
    07/01/2015 03:40      51    53.6      9.01        72.8      77.2      72.2       1       3      52      57    1012    0.00
    07/01/2015 03:50      52    53.6      9.01        72.6      77.2      72.2       0       2      30     319    1012    0.00
    07/01/2015 04:00      51    53.5      9.01        72.5      77.2      72.2       0       2     312     330    1012    0.00
    07/01/2015 04:10      51    53.3      9.01        72.4      77.2      72.2       2       4     284     286    1012    0.00
    07/01/2015 04:20      49    52.9      9.01        72.5      77.2      72.2       2       5     277     245    1012    0.00
    07/01/2015 04:30      47    51.9      9.01        72.8      77.2      72.2       2       6     263     259    1012    0.00
    07/01/2015 04:40      49    51.8      9.01        72.9      77.2      72.2       0       2     270     266    1012    0.00
    07/01/2015 04:50      46    51.6      9.01        72.6      77.2      72.2       0       3     167     207    1012    0.00
    07/01/2015 05:00      47    51.5      9.01        72.9      77.2      72.2       1       4     205     203    1012    0.00
    07/01/2015 05:10      45    51.7      9.01        73.2      77.2      72.2       1       4     261     259    1012    0.00
    07/01/2015 05:20      44    50.3      9.01        73.7      77.2      72.2       2       5     268     255    1012    0.00
    07/01/2015 05:30      45    50.5      9.01        73.8      77.2      72.2       2       4     253     256    1012    0.00
    07/01/2015 05:40      43    50.6      9.01        74.0      77.2      72.2       1       5     245     265    1012    0.00
    07/01/2015 05:50      40    50.3      9.01        74.5      77.2      72.2       2       5     288     243    1011    0.00
    07/01/2015 06:00      39    49.2      9.01        75.1      77.2      72.2       0       2     263     297    1011    0.00
    07/01/2015 06:10      42    50.1      9.01        75.5      77.2      72.2       2       3     166     146    1012    0.00
    07/01/2015 06:20      41    50.2      9.01        75.8      77.2      72.2       0       4     194     149    1011    0.00
    07/01/2015 06:30      43    51.1      9.01        75.9      77.2      72.2       2       3     175     187    1011    0.00
    07/01/2015 06:40      43    51.0      9.01        75.6      77.2      72.2       2       3     213     194    1011    0.00
    07/01/2015 06:50      42    51.7      9.01        76.6      77.5      72.2       1       3     205     182    1011    0.00
    07/01/2015 07:00      39    51.8      9.01        78.3      79.2      72.2       2       4     156     189    1011    0.00
    07/01/2015 07:10      35    52.0      9.01        80.3      82.1      72.2       1       4     281       2    1011    0.00
    07/01/2015 07:20      30    52.1      9.01        85.6      87.6      72.2       4      13     341     330    1011    0.00
    07/01/2015 07:30      31    52.5      9.01        87.1      87.6      72.2       5      14     348       0    1011    0.00
    07/01/2015 07:40      30    51.8      9.01        86.7      87.6      72.2       4       9      48     102    1011    0.00
    07/01/2015 07:50      31    49.3      9.01        84.1      87.6      72.2       6      10      74      70    1011    0.00
    07/01/2015 08:00      30    49.6      9.01        83.0      87.6      72.2       4       7      90      85    1011    0.00
    07/01/2015 08:10      30    48.9      9.01        82.8      87.6      72.2       4       8     101      86    1012    0.00
    07/01/2015 08:20      32    48.9      9.01        82.7      87.6      72.2       4      10     106      89    1012    0.00
    07/01/2015 08:30      32    48.8      9.01        81.5      87.6      72.2       5      12      94      87    1012    0.00
    07/01/2015 08:40      31    48.1      9.01        81.1      87.6      72.2       5       8      87      86    1012    0.00
    07/01/2015 08:50      31    47.5      9.01        80.8      87.6      72.2       5       9      72      60    1012    0.00
    07/01/2015 09:00      32    47.2      9.01        81.1      87.6      72.2       5      10      81      87    1012    0.00
    07/01/2015 09:10      27    47.0      9.01        81.3      87.6      72.2       6      11      76      52    1012    0.00
    07/01/2015 09:20      27    44.8      9.01        81.8      87.6      72.2       6      11      76      91    1012    0.00
    07/01/2015 09:30      27    45.8      9.01        82.9      87.6      72.2       5      10      95     134    1013    0.00
    07/01/2015 09:40      27    45.9      9.01        83.3      87.6      72.2       3       7     106      46    1013    0.00
    07/01/2015 09:50      26    46.1      9.01        84.0      87.6      72.2       3       9     101      94    1013    0.00
    07/01/2015 10:00      25    45.5      9.01        84.5      87.6      72.2       4       8      89      77    1013    0.00
    07/01/2015 10:10      24    45.3      9.01        85.2      87.6      72.2       3       8      91     148    1013    0.00
    07/01/2015 10:20      21    43.6      9.01        85.5      87.6      72.2       4       8     103      80    1013    0.00
    07/01/2015 10:30      22    44.2      9.01        86.0      87.6      72.2       3       8      96      91    1013    0.00
    07/01/2015 10:40      21    42.2      9.01        86.4      87.6      72.2       2       5      76      54    1013    0.00
    07/01/2015 10:50      18    42.7      9.01        87.0      87.7      72.2       3       7     141     157    1013    0.00
    07/01/2015 11:00      21    41.9      9.01        87.2      87.7      72.2       4       8     151     141    1013    0.00
    07/01/2015 11:10      22    42.9      9.01        87.0      87.7      72.2       3       7     148     167    1013    0.00
    07/01/2015 11:20      21    42.0      9.01        87.2      87.7      72.2       1       3     116      75    1012    0.00
    07/01/2015 11:30      23    42.9      9.01        87.0      87.7      72.2       2       4     182     198    1012    0.00
    07/01/2015 11:40      22    42.4      9.01        87.0      87.7      72.2       1       3     203     228    1012    0.00
    07/01/2015 11:50      18    40.1      9.01        86.8      87.7      72.2       2       4     178     150    1012    0.00
    07/01/2015 12:00      16    38.0      9.01        87.5      87.8      72.2       2       4     205     187    1012    0.00
    07/01/2015 12:10      18    37.9      9.01        88.0      88.4      72.2       1       3     195     216    1012    0.00
    07/01/2015 12:20      17    38.5      9.01        88.3      88.7      72.2       2       5     207     238    1011    0.00
    07/01/2015 12:30      18    38.8      9.01        88.7      89.0      72.2       2       5     246     250    1011    0.00
    07/01/2015 12:40      17    38.7      9.01        88.5      89.0      72.2       3       6     270     236    1011    0.00
    07/01/2015 12:50      16    36.3      9.01        88.8      89.3      72.2       3       5     180     170    1011    0.00
    07/01/2015 13:00      15    36.7      9.01        89.3      90.1      72.2       1       4     190     184    1011    0.00
    07/01/2015 13:10      15    35.9      9.01        90.1      90.3      72.2       3       6      99     105    1011    0.00
    07/01/2015 13:20      15    35.7      9.01        90.4      90.8      72.2       1       5     178     126    1011    0.00
    07/01/2015 13:30      14    36.7      9.01        91.8      93.1      72.2       1       4     304     234    1011    0.00
    07/01/2015 13:40      14    37.2      9.01        92.6      93.1      72.2       0       3     253     252    1011    0.00
    07/01/2015 13:50      16    39.3      9.01        92.8      93.1      72.2       3       6     152     169    1011    0.00
    07/01/2015 14:00      17    40.4      9.01        92.6      93.1      72.2       4      10     124     145    1011    0.00
    07/01/2015 14:10      16    41.5      9.01        91.2      93.1      72.2       6      12     129     140    1011    0.00
    07/01/2015 14:20      15    38.4      9.01        91.0      93.1      72.2       4      12     139     172    1011    0.00
    07/01/2015 14:30      12    35.0      9.01        91.9      93.1      72.2       4      10     125     165    1011    0.00
    07/01/2015 14:40      12    32.1      9.01        91.9      93.1      72.2       4       9      95      82    1011    0.00
    07/01/2015 14:50      13    33.6      9.01        91.5      93.1      72.2       4       9      92      84    1011    0.00
    07/01/2015 15:00      15    35.5      9.01        91.8      93.1      72.2       3      11     105     108    1011    0.00
    07/01/2015 15:10      21    42.0      9.01        89.8      93.1      72.2       7      13      93      89    1011    0.00
    07/01/2015 15:20      17    43.1      9.01        88.0      93.1      72.2       6      11      95      82    1011    0.00
    07/01/2015 15:30      17    38.2      9.01        88.5      93.1      72.2       5      11      91      95    1011    0.00
    07/01/2015 15:40      16    37.5      9.01        88.8      93.1      72.2       4      10     102      80    1010    0.00
    07/01/2015 15:50      21    39.2      9.01        88.4      93.1      72.2       5      10      98     141    1010    0.00
    07/01/2015 16:00      23    43.7      9.01        87.8      93.1      72.2       4       9     109      97    1010    0.00
    07/01/2015 16:10      24    45.3      9.01        86.0      93.1      72.2       3       9     107     131    1010    0.00
    07/01/2015 16:20      25    44.5      9.01        84.9      93.1      72.2       4       8      78      79    1010    0.00
    07/01/2015 16:30      27    45.7      9.01        84.4      93.1      72.2       4       8      80      85    1010    0.00
    07/01/2015 16:40      28    46.6      9.01        83.6      93.1      72.2       4       8      87      89    1010    0.00
    07/01/2015 16:50      28    46.8      9.01        83.5      93.1      72.2       4       8      73      60    1011    0.00
    07/01/2015 17:00      26    46.4      9.01        83.7      93.1      72.2       2       8      86      81    1011    0.00
    07/01/2015 17:10      26    45.7      9.01        84.1      93.1      72.2       5       9      73      78    1011    0.00
    07/01/2015 17:20      24    44.7      9.01        84.4      93.1      72.2       5       9      72      71    1011    0.00
    07/01/2015 17:30      24    43.3      9.01        84.0      93.1      72.2       4       8      86      76    1011    0.00
    07/01/2015 17:40      25    44.2      9.01        83.8      93.1      72.2       3       7      77      84    1011    0.00
    07/01/2015 17:50      27    45.7      9.01        83.6      93.1      72.2       3       6     130     130    1011    0.00
    07/01/2015 18:00      29    46.1      9.01        82.9      93.1      72.2       3       5     102      81    1011    0.00
    07/01/2015 18:10      30    46.6      9.01        82.0      93.1      72.2       3       8      97      99    1011    0.00
    07/01/2015 18:20      28    46.0      9.01        81.3      93.1      72.2       3       6      71      43    1011    0.00
    07/01/2015 18:30      29    45.1      9.01        80.9      93.1      72.2       4       9      52      44    1011    0.00
    07/01/2015 18:40      29    45.3      9.01        80.6      93.1      72.2       4       8      61      41    1012    0.00
    07/01/2015 18:50      32    45.8      9.01        79.8      93.1      72.2       7      12      74      74    1012    0.00
    07/01/2015 19:00      33    46.2      9.01        78.4      93.1      72.2       6      10      75      85    1012    0.00
    07/01/2015 19:10      33    46.3      9.01        77.8      93.1      72.2       4      10      75      87    1012    0.00
    07/01/2015 19:20      34    46.6      9.01        77.5      93.1      72.2       4       9      62      51    1012    0.00
    07/01/2015 19:30      35    47.4      9.01        77.3      93.1      72.2       4       8      73      83    1012    0.00
    07/01/2015 19:40      39    49.1      9.01        77.1      93.1      72.2       4       9      68      62    1012    0.00
    07/01/2015 19:50      39    49.8      9.01        76.8      93.1      72.2       4       8      56      53    1012    0.00
    07/01/2015 20:00      39    49.8      9.01        76.6      93.1      72.2       3       7      49      57    1012    0.00
    07/01/2015 20:10      36    49.1      9.01        76.4      93.1      72.2       3       6      66      45    1012    0.00
    07/01/2015 20:20      36    47.4      9.01        76.4      93.1      72.2       3       6      75      93    1013    0.00
    07/01/2015 20:30      36    47.0      9.01        76.1      93.1      72.2       3       7      61      56    1013    0.00
    07/01/2015 20:40      38    48.0      9.01        75.9      93.1      72.2       4       8      56      60    1013    0.00
    07/01/2015 20:50      38    48.4      9.01        75.7      93.1      72.2       4       7      56      64    1013    0.00
    07/01/2015 21:00      40    49.0      9.01        75.6      93.1      72.2       3       6      62      50    1013    0.00
    07/01/2015 21:10      39    49.0      9.01        75.5      93.1      72.2       3       6      56      69    1013    0.00
    07/01/2015 21:20      39    48.8      9.01        75.6      93.1      72.2       2       4      63      76    1013    0.00
    07/01/2015 21:30      39    48.9      9.01        75.8      93.1      72.2       1       4      63      40    1013    0.00
    07/01/2015 21:40      38    48.9      9.01        75.8      93.1      72.2       2       5      44      37    1013    0.00
    07/01/2015 21:50      39    49.1      9.01        75.9      93.1      72.2       0       1      97     105    1013    0.00
    07/01/2015 22:00      39    49.1      9.01        75.9      93.1      72.2       0       2      89     135    1013    0.00
    07/01/2015 22:10      40    49.4      9.01        75.8      93.1      72.2       0       2     127     140    1013    0.00
    07/01/2015 22:20      40    49.5      9.01        75.7      93.1      72.2       0       3     125     132    1013    0.00
    07/01/2015 22:30      39    48.7      9.01        75.5      93.1      72.2       0       2     154     169    1013    0.00
    07/01/2015 22:40      37    47.7      9.01        75.4      93.1      72.2       0       2     106      90    1013    0.00
    07/01/2015 22:50      39    47.2      9.01        75.4      93.1      72.2       0       2      76      86    1013    0.00
    07/01/2015 23:00      38    47.8      9.01        75.2      93.1      72.2       0       3      53      59    1013    0.00
    07/01/2015 23:10      39    48.7      9.01        75.4      93.1      72.2       2       3      74      59    1013    0.00
    07/01/2015 23:20      39    48.8      9.01        75.4      93.1      72.2       2       4      73      74    1013    0.00
    07/01/2015 23:30      39    48.9      9.01        75.5      93.1      72.2       2       4      86      83    1013    0.00
    07/01/2015 23:40      40    49.3      9.01        75.5      93.1      72.2       2       4      89      72    1013    0.00
    07/01/2015 23:50      42    50.3      9.01        75.3      93.1      72.2       1       4     133     138    1013    0.00
    07/02/2015 00:00      44    50.9      9.01        75.0      93.1      72.2       0       3     122     103    1013    0.00
    07/02/2015 00:10      44    51.4      9.01        74.8      75.0      74.5       0       2      84     127    1013    0.00
    07/02/2015 00:20      45    51.9      9.01        74.7      75.0      74.5       1       3      79      81    1013    0.00
    07/02/2015 00:30      46    52.3      9.01        74.6      75.0      74.5       2       4      81      93    1013    0.00
    07/02/2015 00:40      47    52.6      9.01        74.5      75.0      74.2       1       4      86      89    1013    0.00
    07/02/2015 00:50      47    52.9      9.01        74.4      75.0      74.2       2       3      90     113    1013    0.00
    07/02/2015 01:00      48    52.9      9.01        74.3      75.0      74.1       2       4      63      47    1013    0.00
    07/02/2015 01:10      48    53.1      9.01        74.1      75.0      73.8       2       4      77      65    1013    0.00
    07/02/2015 01:20      49    53.4      9.01        74.0      75.0      73.8       1       3     100      80    1013    0.00
    07/02/2015 01:30      49    53.5      9.01        73.9      75.0      73.8       1       4      93     103    1013    0.00
    07/02/2015 01:40      49    53.5      9.01        73.7      75.0      73.5       2       4      53      50    1013    0.00
    07/02/2015 01:50      50    53.6      9.01        73.5      75.0      73.3       0       2      44      27    1013    0.00
    07/02/2015 02:00      50    53.6      9.01        73.3      75.0      73.1       0       2      58      27    1013    0.00
    07/02/2015 02:10      51    53.7      9.01        73.2      75.0      73.1       2       4      81      86    1013    0.00
    07/02/2015 02:20      51    53.7      9.01        73.0      75.0      72.8       2       3      53      97    1013    0.00
    07/02/2015 02:30      51    53.7      9.01        72.8      75.0      72.6       2       4      66      67    1013    0.00
    07/02/2015 02:40      53    54.0      9.01        72.6      75.0      72.4       1       3      73      67    1013    0.00
    07/02/2015 02:50      53    54.2      9.01        72.3      75.0      72.0       0       1      76     100    1013    0.00
    07/02/2015 03:00      54    54.4      9.01        71.9      75.0      71.7       0       3      44      57    1013    0.00
    07/02/2015 03:10      55    54.6      9.01        72.0      75.0      71.7       1       3      86      65    1013    0.00
    07/02/2015 03:20      55    54.7      9.01        71.8      75.0      71.6       0       2      58      48    1013    0.00
    07/02/2015 03:30      56    54.8      9.01        71.5      75.0      71.2       0       0      21      66    1013    0.00
    07/02/2015 03:40      57    54.9      9.01        71.2      75.0      70.8       0       1      89     114    1013    0.00
    07/02/2015 03:50      58    55.3      9.01        70.8      75.0      70.6       0       2     109     100    1013    0.00
    07/02/2015 04:00      58    55.6      9.01        70.8      75.0      70.6       0       0     104     106    1013    0.00
    07/02/2015 04:10      58    55.5      9.01        70.9      75.0      70.6       0       2     151     141    1013    0.00
    07/02/2015 04:20      58    55.6      9.01        70.9      75.0      70.6       0       2     167     209    1013    0.00
    07/02/2015 04:30      57    55.6      9.01        71.1      75.0      70.6       0       2     310     348    1013    0.00
    07/02/2015 04:40      57    55.4      9.01        71.3      75.0      70.6       0       0     292     313    1013    0.00
    07/02/2015 04:50      59    55.6      9.01        71.2      75.0      70.6       1       3     181     181    1014    0.00
    07/02/2015 05:00      58    55.7      9.01        71.1      75.0      70.6       0       2     192     166    1014    0.00
    07/02/2015 05:10      58    55.5      9.01        71.2      75.0      70.6       0       0     172     172    1014    0.00
    07/02/2015 05:20      58    55.6      9.01        71.1      75.0      70.6       0       0       0     277    1014    0.00
    07/02/2015 05:30      58    55.6      9.01        71.2      75.0      70.6       0       0     291     293    1014    0.00
    07/02/2015 05:40      58    55.8      9.01        71.5      75.0      70.6       0       0     270     293    1014    0.00
    07/02/2015 05:50      58    56.3      9.01        71.6      75.0      70.6       0       2     186     190    1014    0.00
    07/02/2015 06:00      55    55.7      9.01        72.2      75.0      70.6       0       0     190     185    1014    0.00
    07/02/2015 06:10      51    55.5      9.01        74.1      75.0      70.6       0       2     301     288    1014    0.00
    07/02/2015 06:20      50    55.1      9.01        74.5      75.0      70.6       0       2     290     276    1014    0.00
    07/02/2015 06:30      48    53.5      9.01        74.4      75.0      70.6       0       2     313     330    1014    0.00
    07/02/2015 06:40      46    53.3      9.01        75.0      75.3      70.6       0       2     237     149    1014    0.00
    07/02/2015 06:50      42    52.6      9.01        76.6      77.6      70.6       0       1     150     168    1014    0.00
    07/02/2015 07:00      41    52.4      9.01        77.0      77.6      70.6       0       2     156     180    1014    0.00
    07/02/2015 07:10      44    52.3      9.01        76.4      77.6      70.6       0       2     160     169    1014    0.00
    07/02/2015 07:20      46    53.7      9.01        76.2      77.6      70.6       2       4     163     152    1014    0.00
    07/02/2015 07:30      44    53.5      9.01        76.3      77.6      70.6       1       2     139     127    1014    0.00
    07/02/2015 07:40      43    52.8      9.01        76.6      77.6      70.6       1       4     128     155    1014    0.00
    07/02/2015 07:50      43    52.3      9.01        76.5      77.6      70.6       1       3     147     176    1014    0.00
    07/02/2015 08:00      44    52.8      9.01        76.8      77.6      70.6       2       4     154     143    1014    0.00
    07/02/2015 08:10      44    53.1      9.01        76.7      77.6      70.6       2       4     164     153    1014    0.00
    07/02/2015 08:20      41    53.2      9.01        77.3      78.0      70.6       2       4     158     160    1014    0.00
    07/02/2015 08:30      42    53.3      9.01        78.5      79.1      70.6       2       6     172     186    1014    0.00
    07/02/2015 08:40      42    53.6      9.01        78.3      79.1      70.6       3       6     185     152    1014    0.00
    07/02/2015 08:50      44    54.7      9.01        78.2      79.1      70.6       3       4     156     188    1014    0.00
    07/02/2015 09:00      40    54.9      9.01        79.7      81.3      70.6       1       4     178     145    1014    0.00
    07/02/2015 09:10      40    55.1      9.01        81.1      81.8      70.6       4       7     162     165    1014    0.00
    07/02/2015 09:20      40    54.0      9.01        80.8      81.8      70.6       4       7     164     180    1014    0.00
    07/02/2015 09:30      39    52.0      9.01        80.1      81.8      70.6       2       6     114     132    1014    0.00
    07/02/2015 09:40      36    52.3      9.01        80.2      81.8      70.6       3       6     100     122    1014    0.00
    07/02/2015 09:50      34    51.6      9.01        80.9      81.8      70.6       3       7     135     164    1014    0.00
    07/02/2015 10:00      34    51.4      9.01        81.9      82.6      70.6       4       8     134     148    1014    0.00
    07/02/2015 10:10      31    49.4      9.01        82.2      82.8      70.6       3       7     100      91    1014    0.00
    07/02/2015 10:20      30    47.3      9.01        82.3      82.8      70.6       3       7      69      72    1014    0.00
    07/02/2015 10:30      26    46.1      9.01        83.7      84.8      70.6       3       6     136     135    1014    0.00
    07/02/2015 10:40      26    45.4      9.01        84.7      85.2      70.6       4       7     106      71    1014    0.00
    07/02/2015 10:50      28    46.2      9.01        84.7      85.5      70.6       2       7     101      62    1014    0.00
    07/02/2015 11:00      31    50.2      9.01        85.5      86.1      70.6       3       6      96      78    1014    0.00
    07/02/2015 11:10      35    52.7      9.01        85.7      86.4      70.6       4      14     124     150    1014    0.00
    07/02/2015 11:20      32    53.9      9.01        86.0      87.1      70.6       6      10     136     158    1014    0.00
    07/02/2015 11:30      30    52.2      9.01        86.1      87.1      70.6       5      10     133     122    1014    0.00
    07/02/2015 11:40      27    50.0      9.01        86.1      87.1      70.6       5       9     110      84    1014    0.00
    07/02/2015 11:50      25    47.4      9.01        86.4      87.1      70.6       5      10     121     138    1014    0.00
    07/02/2015 12:00      24    47.0      9.01        86.7      87.1      70.6       4       9     102      86    1014    0.00
    07/02/2015 12:10      23    46.1      9.01        87.6      88.4      70.6       4       9     103      55    1013    0.00
    07/02/2015 12:20      25    48.5      9.01        88.5      88.9      70.6       4      11     134      87    1013    0.00
    07/02/2015 12:30      25    48.8      9.01        89.6      90.1      70.6       4       9     116     105    1013    0.00
    07/02/2015 12:40      27    48.9      9.01        88.3      90.1      70.6       5      11     108      79    1013    0.00
    07/02/2015 12:50      26    49.8      9.01        88.4      90.1      70.6       5      10     137     132    1013    0.00
    07/02/2015 13:00      27    48.8      9.01        88.5      90.1      70.6       5      10     123     153    1013    0.00
    07/02/2015 13:10      24    47.8      9.01        88.5      90.1      70.6       6      13     124      99    1013    0.00
    07/02/2015 13:20      26    48.4      9.01        88.8      90.1      70.6       6      12     144     165    1013    0.00
    07/02/2015 13:30      25    48.4      9.01        89.1      90.1      70.6       5      10     112      94    1013    0.00
    07/02/2015 13:40      26    49.5      9.01        88.1      90.1      70.6       6      11     145     112    1013    0.00
    07/02/2015 13:50      26    49.2      9.01        88.5      90.1      70.6       4       9     117     103    1013    0.00
    07/02/2015 14:00      25    48.6      9.01        88.5      90.1      70.6       5       9     110     125    1013    0.00
    07/02/2015 14:10      23    47.2      9.01        88.9      90.1      70.6       4      10     104      86    1013    0.00
    07/02/2015 14:20      23    46.5      9.01        88.7      90.1      70.6       5      10     107      74    1013    0.00
    07/02/2015 14:30      23    45.7      9.01        89.5      90.1      70.6       3       8     104      86    1013    0.00
    07/02/2015 14:40      22    45.9      9.01        89.9      90.5      70.6       5       9      85      89    1012    0.00
    07/02/2015 14:50      21    46.2      9.01        90.4      91.0      70.6       4      11     144     128    1012    0.00
    07/02/2015 15:00      22    46.6      9.01        91.7      92.3      70.6       3      10     224     165    1012    0.00
    07/02/2015 15:10      23    48.8      9.01        91.5      92.3      70.6       5      11     260     257    1012    0.00
    07/02/2015 15:20      23    47.9      9.01        90.5      92.3      70.6       5      11     252     250    1012    0.00
    07/02/2015 15:30      23    47.6      9.01        90.9      92.3      70.6       4      10     254     237    1012    0.00
    07/02/2015 15:40      21    45.8      9.01        90.6      92.3      70.6       6      14     267     297    1012    0.00
    07/02/2015 15:50      21    44.5      9.01        89.9      92.3      70.6       6      13     262     247    1012    0.00
    07/02/2015 16:00      17    42.4      9.01        90.0      92.3      70.6       6      12     256     246    1012    0.00
    07/02/2015 16:10      17    40.4      9.01        89.4      92.3      70.6       6      14     283     267    1011    0.00
    07/02/2015 16:20      16    37.9      9.01        89.5      92.3      70.6       6      12     271     260    1011    0.00
    07/02/2015 16:30      16    38.5      9.01        89.3      92.3      70.6       5      13     286     296    1011    0.00
    07/02/2015 16:40      17    38.4      9.01        89.1      92.3      70.6       6      11     288     301    1011    0.00
    07/02/2015 16:50      17    37.3      9.01        88.5      92.3      70.6       7      11     280     277    1011    0.00
    07/02/2015 17:00      15    37.0      9.01        87.9      92.3      70.6       7      15     274     243    1011    0.00
    07/02/2015 17:10      16    35.2      9.01        87.6      92.3      70.6       6      11     274     244    1011    0.00
    07/02/2015 17:20      16    36.1      9.01        87.0      92.3      70.6       6      12     290     317    1011    0.00
    07/02/2015 17:30      18    36.9      9.01        86.8      92.3      70.6       5      12     278     290    1011    0.00
    07/02/2015 17:40      17    37.0      9.01        86.3      92.3      70.6       6      11     274     258    1011    0.00
    07/02/2015 17:50      18    38.2      9.01        86.1      92.3      70.6       4       7     274     257    1011    0.00
    07/02/2015 18:00      18    36.3      9.01        85.8      92.3      70.6       5      11     262     262    1011    0.00
    07/02/2015 18:10      17    35.3      9.01        85.5      92.3      70.6       6      11     261     232    1011    0.00
    07/02/2015 18:20      17    34.8      9.01        85.1      92.3      70.6       5      10     263     245    1012    0.00
    07/02/2015 18:30      20    37.0      9.01        84.7      92.3      70.6       4      10     267     251    1011    0.00
    07/02/2015 18:40      22    39.6      9.01        84.2      92.3      70.6       4       8     260     251    1011    0.00
    07/02/2015 18:50      24    41.4      9.01        83.5      92.3      70.6       5       9     255     269    1011    0.00
    07/02/2015 19:00      26    42.9      9.01        82.7      92.3      70.6       3       7     271     249    1012    0.00
    07/02/2015 19:10      28    44.8      9.01        81.8      92.3      70.6       3       7     265     244    1012    0.00
    07/02/2015 19:20      30    46.0      9.01        81.0      92.3      70.6       2       6     265     307    1012    0.00
    07/02/2015 19:30      33    47.4      9.01        80.2      92.3      70.6       2       4     216     243    1012    0.00
    07/02/2015 19:40      34    48.2      9.01        79.1      92.3      70.6       1       4     210     191    1012    0.00
    07/02/2015 19:50      34    48.0      9.01        78.9      92.3      70.6       1       4     258     189    1012    0.00
    07/02/2015 20:00      34    48.1      9.01        78.7      92.3      70.6       1       3     274     254    1012    0.00
    07/02/2015 20:10      35    48.0      9.01        78.3      92.3      70.6       0       2     248     268    1012    0.00
    07/02/2015 20:20      36    48.5      9.01        77.7      92.3      70.6       0       2     257     246    1012    0.00
    07/02/2015 20:30      38    49.0      9.01        77.4      92.3      70.6       0       0       0     241    1012    0.00
    07/02/2015 20:40      37    49.3      9.01        77.0      92.3      70.6       0       0       0     247    1012    0.00
    07/02/2015 20:50      38    49.1      9.01        76.6      92.3      70.6       0       2     213     218    1013    0.00
    07/02/2015 21:00      38    48.9      9.01        76.5      92.3      70.6       0       0       0     233    1013    0.00
    07/02/2015 21:10      39    49.4      9.01        76.6      92.3      70.6       0       0       0     307    1013    0.00
    07/02/2015 21:20      35    48.1      9.01        76.3      92.3      70.6       2       4     175     189    1013    0.00
    07/02/2015 21:30      38    47.0      9.01        76.2      92.3      70.6       2       3     177     183    1013    0.00
    07/02/2015 21:40      38    48.0      9.01        75.8      92.3      70.6       3       4     178     201    1013    0.00
    07/02/2015 21:50      44    49.6      9.01        75.8      92.3      70.6       3       5     184     185    1013    0.00
    07/02/2015 22:00      50    54.2      9.01        75.1      92.3      70.6       2       4     161     130    1013    0.00
    07/02/2015 22:10      50    55.5      9.01        75.1      92.3      70.6       1       4     106     102    1013    0.00
    07/02/2015 22:20      51    55.5      9.01        74.8      92.3      70.6       0       2     117     140    1013    0.00
    07/02/2015 22:30      54    56.2      9.01        74.6      92.3      70.6       2       5      95      69    1013    0.00
    07/02/2015 22:40      58    57.5      9.01        73.9      92.3      70.6       3       5     103      97    1013    0.00
    07/02/2015 22:50      60    57.9      9.01        73.0      92.3      70.6       2       5      92      95    1013    0.00
    07/02/2015 23:00      61    58.0      9.01        72.5      92.3      70.6       2       4      88      83    1013    0.00
    07/02/2015 23:10      61    58.0      9.01        72.2      92.3      70.6       1       3     100      54    1013    0.00
    07/02/2015 23:20      63    58.1      9.01        71.5      92.3      70.6       1       4     149     147    1013    0.00
    07/02/2015 23:30      65    58.2      9.01        71.0      92.3      70.6       2       2     158     172    1013    0.00
    07/02/2015 23:40      65    58.2      9.01        70.7      92.3      70.3       0       1     147     154    1013    0.00
    07/02/2015 23:50      65    58.1      9.01        70.3      92.3      70.0       0       0       0     182    1013    0.00
    07/03/2015 00:00      66    58.2      9.01        70.1      92.3      70.0       0       3     151     147    1013    0.00
    07/03/2015 00:10      65    58.3      9.01        70.3      70.7      70.0       1       3     123     130    1013    0.00
    07/03/2015 00:20      65    58.3      9.01        70.7      70.9      70.0       0       2     105      78    1013    0.00
    07/03/2015 00:30      64    58.3      9.01        70.7      70.9      70.0       1       3      97      97    1013    0.00
    07/03/2015 00:40      64    58.1      9.01        70.7      71.0      70.0       1       2     102      76    1013    0.00
    07/03/2015 00:50      65    58.1      9.01        70.6      71.0      70.0       1       3      91      66    1013    0.00
    07/03/2015 01:00      65    58.1      9.01        70.4      71.0      70.0       2       4      85      86    1013    0.00
    07/03/2015 01:10      66    58.0      9.01        70.1      71.0      69.9       2       4      78      86    1013    0.00
    07/03/2015 01:20      66    57.9      9.01        69.9      71.0      69.6       2       4      60      48    1013    0.00
    07/03/2015 01:30      67    57.9      9.01        69.6      71.0      69.4       2       4      53      30    1013    0.00
    07/03/2015 01:40      67    58.0      9.01        69.4      71.0      69.0       1       2      69      62    1013    0.00
    07/03/2015 01:50      68    58.1      9.01        69.3      71.0      69.0       2       3      81     107    1013    0.00
    07/03/2015 02:00      68    58.0      9.01        69.1      71.0      68.9       1       2      74      60    1013    0.00
    07/03/2015 02:10      68    57.9      9.01        68.8      71.0      68.6       0       2      36      33    1013    0.00
    07/03/2015 02:20      69    57.9      9.01        68.7      71.0      68.4       0       2      75     100    1013    0.00
    07/03/2015 02:30      71    58.0      9.01        68.1      71.0      67.7       0       2     153     150    1013    0.00
    07/03/2015 02:40      72    58.1      9.01        67.7      71.0      67.4       1       2     150     147    1013    0.00
    07/03/2015 02:50      72    58.2      9.01        67.6      71.0      67.4       1       3     156     151    1012    0.00
    07/03/2015 03:00      72    58.2      9.01        67.6      71.0      67.3       0       2     140     128    1013    0.00
    07/03/2015 03:10      71    58.1      9.01        67.7      71.0      67.3       0       2     128     137    1013    0.00
    07/03/2015 03:20      72    58.1      9.01        67.5      71.0      67.3       1       3     122     101    1013    0.00
    07/03/2015 03:30      72    58.2      9.01        67.5      71.0      67.3       2       4      93      90    1013    0.00
    07/03/2015 03:40      72    58.0      9.01        67.3      71.0      67.0       2       5      70      60    1013    0.00
    07/03/2015 03:50      72    57.9      9.01        67.0      71.0      66.8       2       4      68      55    1013    0.00
    07/03/2015 04:00      73    57.9      9.01        66.7      71.0      66.5       2       4      50      36    1013    0.00
    07/03/2015 04:10      74    57.8      9.01        66.5      71.0      66.3       2       4      61      46    1013    0.00
    07/03/2015 04:20      74    57.9      9.01        66.3      71.0      66.1       1       3      98      98    1013    0.00
    07/03/2015 04:30      75    57.8      9.01        66.1      71.0      65.8       1       3      66      92    1013    0.00
    07/03/2015 04:40      76    57.7      9.01        65.7      71.0      65.4       0       1     115      86    1013    0.00
    07/03/2015 04:50      76    57.5      9.01        65.3      71.0      65.1       0       1     133     157    1013    0.00
    07/03/2015 05:00      77    57.7      9.01        65.0      71.0      64.8       0       2     143     147    1013    0.00
    07/03/2015 05:10      78    57.8      9.01        65.0      71.0      64.8       1       2     145     152    1013    0.00
    07/03/2015 05:20      77    57.8      9.01        65.0      71.0      64.8       1       2     149     150    1013    0.00
    07/03/2015 05:30      78    57.8      9.01        65.0      71.0      64.8       2       4     151     133    1013    0.00
    07/03/2015 05:40      78    57.8      9.01        64.9      71.0      64.7       0       2     167     165    1013    0.00
    07/03/2015 05:50      77    57.9      9.01        65.0      71.0      64.7       0       2      85     144    1013    0.00
    07/03/2015 06:00      73    58.1      9.01        66.0      71.0      64.7       0       3      23      44    1013    0.00
    07/03/2015 06:10      69    57.9      9.01        67.6      71.0      64.7       0       2      38      77    1013    0.00
    07/03/2015 06:20      66    57.5      9.01        68.8      71.0      64.7       0       2      75      83    1013    0.00
    07/03/2015 06:30      65    57.2      9.01        69.1      71.0      64.7       1       2      38      14    1013    0.00
    07/03/2015 06:40      65    57.3      9.01        69.5      71.0      64.7       1       3     160     178    1013    0.00
    07/03/2015 06:50      65    57.3      9.01        69.3      71.0      64.7       2       4     179     178    1013    0.00
    07/03/2015 07:00      62    57.6      9.01        70.3      71.1      64.7       2       5     154     168    1013    0.00
    07/03/2015 07:10      63    57.4      9.01        70.8      71.1      64.7       3       5     169     147    1013    0.00
    07/03/2015 07:20      62    57.5      9.01        70.6      71.1      64.7       3       6     175     155    1013    0.00
    07/03/2015 07:30      60    57.2      9.01        71.2      71.7      64.7       2       4     170     141    1013    0.00
    07/03/2015 07:40      58    57.1      9.01        72.3      73.1      64.7       3       6      82      54    1014    0.00
    07/03/2015 07:50      57    57.4      9.01        73.2      73.8      64.7       3       6     128     129    1014    0.00
    07/03/2015 08:00      57    57.4      9.01        73.8      74.2      64.7       3       5     130     133    1014    0.00
    07/03/2015 08:10      55    57.3      9.01        74.5      75.0      64.7       2       5      74      81    1014    0.00
    07/03/2015 08:20      53    57.3      9.01        75.1      75.7      64.7       3       7      86      71    1013    0.00
    07/03/2015 08:30      53    56.9      9.01        74.9      75.7      64.7       4       7      81      97    1013    0.00
    07/03/2015 08:40      51    56.5      9.01        75.4      76.4      64.7       3       5      97      89    1013    0.00
    07/03/2015 08:50      48    56.6      9.01        77.0      77.7      64.7       4       7     125     136    1013    0.00
    07/03/2015 09:00      48    55.5      9.01        77.1      77.9      64.7       3      10     104      86    1013    0.00
    07/03/2015 09:10      46    55.3      9.01        77.7      78.2      64.7       3       7     103      99    1013    0.00
    07/03/2015 09:20      46    55.1      9.01        77.8      78.8      64.7       4       8     104     144    1013    0.00
    07/03/2015 09:30      40    54.2      9.01        78.5      79.3      64.7       3       8     129     130    1013    0.00
    07/03/2015 09:40      42    53.2      9.01        78.9      79.9      64.7       3       7      97      90    1013    0.00
    07/03/2015 09:50      40    53.5      9.01        78.7      79.9      64.7       3       7     119     163    1013    0.00
    07/03/2015 10:00      42    54.3      9.01        79.9      80.6      64.7       3       8     122     137    1013    0.00
    07/03/2015 10:10      40    54.2      9.01        80.5      81.1      64.7       3       7     108     150    1013    0.00
    07/03/2015 10:20      35    53.3      9.01        81.1      81.6      64.7       3       7     116     140    1013    0.00
    07/03/2015 10:30      37    53.5      9.01        81.5      82.4      64.7       4       8     160     155    1013    0.00
    07/03/2015 10:40      38    53.8      9.01        81.8      82.9      64.7       3       8     156     173    1013    0.00
    07/03/2015 10:50      36    52.8      9.01        82.1      83.0      64.7       4      11     112     142    1013    0.00
    07/03/2015 11:00      36    53.0      9.01        82.2      83.0      64.7       4       9     102     135    1013    0.00
    07/03/2015 11:10      36    53.3      9.01        83.1      84.0      64.7       3       7     157     158    1013    0.00
    07/03/2015 11:20      34    53.4      9.01        83.9      84.4      64.7       3       7     109     101    1012    0.00
    07/03/2015 11:30      34    52.6      9.01        83.7      84.4      64.7       4       7     112      94    1012    0.00
    07/03/2015 11:40      32    52.1      9.01        84.5      85.4      64.7       2       4     153     135    1012    0.00
    07/03/2015 11:50      32    52.6      9.01        85.1      85.9      64.7       3       7     209     165    1012    0.00
    07/03/2015 12:00      31    52.0      9.01        85.6      86.1      64.7       2       5     145     159    1012    0.00
    07/03/2015 12:10      30    51.6      9.01        86.6      87.5      64.7       2       4     231     244    1011    0.00
    07/03/2015 12:20      30    51.3      9.01        87.2      87.8      64.7       3       9     120     124    1011    0.00
    07/03/2015 12:30      28    51.4      9.01        87.6      88.7      64.7       3       7     220     194    1011    0.00
    07/03/2015 12:40      28    51.8      9.01        89.2      89.5      64.7       4       8      82      89    1011    0.00
    07/03/2015 12:50      29    52.5      9.01        89.5      90.1      64.7       3      11     144      79    1011    0.00
    07/03/2015 13:00      29    52.5      9.01        89.5      90.1      64.7       4      11     109     166    1011    0.00
    07/03/2015 13:10      28    53.4      9.01        89.7      90.5      64.7       4      10     111     153    1011    0.00
    07/03/2015 13:20      28    53.5      9.01        90.6      91.1      64.7       3       9     137      91    1011    0.00
    07/03/2015 13:30      29    53.6      9.01        89.9      91.1      64.7       3      10     121     142    1010    0.00
    07/03/2015 13:40      30    54.2      9.01        89.9      91.1      64.7       5      10     127     133    1010    0.00
    07/03/2015 13:50      30    54.1      9.01        90.5      91.1      64.7       4       9     122     150    1010    0.00
    07/03/2015 14:00      30    54.0      9.01        90.1      91.1      64.7       4      10     134     167    1010    0.00
    07/03/2015 14:10      28    53.7      9.01        90.6      91.3      64.7       3       7     117     104    1010    0.00
    07/03/2015 14:20      28    53.9      9.01        91.0      91.6      64.7       4       8     139     123    1010    0.00
    07/03/2015 14:30      27    53.1      9.01        90.4      91.7      64.7       3       7     113      87    1010    0.00
    07/03/2015 14:40      27    53.4      9.01        92.3      93.0      64.7       3       7     127     164    1010    0.00
    07/03/2015 14:50      27    53.1      9.01        91.6      93.0      64.7       3       8     157     148    1010    0.00
    07/03/2015 15:00      28    52.9      9.01        91.4      93.0      64.7       2       6     163      36    1010    0.00
    07/03/2015 15:10      27    53.3      9.01        91.4      93.0      64.7       4      12     253     251    1009    0.00
    07/03/2015 15:20      26    53.1      9.01        91.9      93.0      64.7       4      10     245     246    1009    0.00
    07/03/2015 15:30      25    51.8      9.01        91.3      93.0      64.7       6      11     261     259    1009    0.00
    07/03/2015 15:40      25    49.9      9.01        91.0      93.0      64.7       5      12     263     256    1009    0.00
    07/03/2015 15:50      24    49.6      9.01        90.7      93.0      64.7       7      12     263     242    1009    0.00
    07/03/2015 16:00      25    49.5      9.01        90.5      93.0      64.7       5      12     247     253    1009    0.00
    07/03/2015 16:10      24    49.4      9.01        90.2      93.0      64.7       5      10     251     241    1009    0.00
    07/03/2015 16:20      26    49.4      9.01        90.1      93.0      64.7       5      11     251     250    1009    0.00
    07/03/2015 16:30      27    50.1      9.01        89.4      93.0      64.7       6      14     250     246    1009    0.00
    07/03/2015 16:40      27    50.2      9.01        88.5      93.0      64.7       5      12     259     278    1009    0.00
    07/03/2015 16:50      28    50.2      9.01        88.4      93.0      64.7       6      12     255     255    1009    0.00
    07/03/2015 17:00      28    50.4      9.01        88.0      93.0      64.7       4      11     263     260    1009    0.00
    07/03/2015 17:10      29    50.7      9.01        87.4      93.0      64.7       5      11     269     250    1009    0.00
    07/03/2015 17:20      29    50.9      9.01        86.9      93.0      64.7       5      10     261     244    1009    0.00
    07/03/2015 17:30      30    50.8      9.01        86.1      93.0      64.7       5      10     264     249    1009    0.00
    07/03/2015 17:40      31    50.6      9.01        85.2      93.0      64.7       4       8     253     262    1009    0.00
    07/03/2015 17:50      31    50.2      9.01        84.4      93.0      64.7       4       9     259     252    1009    0.00
    07/03/2015 18:00      31    49.7      9.01        84.0      93.0      64.7       4       8     250     250    1009    0.00
    07/03/2015 18:10      32    49.6      9.01        83.1      93.0      64.7       4       7     242     245    1009    0.00
    07/03/2015 18:20      33    49.8      9.01        82.1      93.0      64.7       5       9     255     254    1009    0.00
    07/03/2015 18:30      33    49.0      9.01        81.2      93.0      64.7       5      11     259     245    1009    0.00
    07/03/2015 18:40      33    48.9      9.01        80.4      93.0      64.7       5       9     261     247    1009    0.00
    07/03/2015 18:50      33    48.0      9.01        80.0      93.0      64.7       3       8     275     242    1009    0.00
    07/03/2015 19:00      32    47.4      9.01        79.2      93.0      64.7       3       7     271     242    1009    0.00
    07/03/2015 19:10      32    46.8      9.01        78.7      93.0      64.7       4       7     259     260    1009    0.00
    07/03/2015 19:20      34    46.9      9.01        78.3      93.0      64.7       4       8     256     258    1009    0.00
    07/03/2015 19:30      35    47.3      9.01        77.5      93.0      64.7       4       8     263     249    1009    0.00
    07/03/2015 19:40      35    47.2      9.01        77.0      93.0      64.7       1       5     259     245    1009    0.00
    07/03/2015 19:50      37    47.7      9.01        76.3      93.0      64.7       2       5     220     199    1009    0.00
    07/03/2015 20:00      38    48.5      9.01        75.5      93.0      64.7       3       5     201     200    1010    0.00
    07/03/2015 20:10      39    47.9      9.01        74.9      93.0      64.7       3       4     187     184    1010    0.00
    07/03/2015 20:20      39    47.9      9.01        74.5      93.0      64.7       3       5     178     183    1010    0.00
    07/03/2015 20:30      40    48.1      9.01        73.9      93.0      64.7       2       4     209     193    1010    0.00
    07/03/2015 20:40      41    48.3      9.01        73.6      93.0      64.7       2       4     217     213    1010    0.00
    07/03/2015 20:50      42    48.4      9.01        73.2      93.0      64.7       1       3     208     201    1010    0.00
    07/03/2015 21:00      46    49.8      9.01        73.0      93.0      64.7       3       4     183     178    1010    0.00
    07/03/2015 21:10      47    50.9      9.01        72.5      93.0      64.7       3       4     169     164    1010    0.00
    07/03/2015 21:20      48    51.5      9.01        72.6      93.0      64.7       3       4     185     183    1010    0.00
    07/03/2015 21:30      50    51.8      9.01        72.2      93.0      64.7       2       3     186     206    1010    0.00
    07/03/2015 21:40      51    52.1      9.01        71.7      93.0      64.7       2       3     185     187    1011    0.00
    07/03/2015 21:50      58    54.1      9.01        71.5      93.0      64.7       2       4     130     102    1011    0.00
    07/03/2015 22:00      59    56.0      9.01        71.4      93.0      64.7       2       5     101      86    1011    0.00
    07/03/2015 22:10      60    56.1      9.01        70.8      93.0      64.7       2       6      95      90    1011    0.00
    07/03/2015 22:20      63    56.2      9.01        69.8      93.0      64.7       4       7      86      84    1011    0.00
    07/03/2015 22:30      64    56.3      9.01        69.0      93.0      64.7       3       6      87      99    1011    0.00
    07/03/2015 22:40      66    56.3      9.01        68.5      93.0      64.7       3       6      96      99    1011    0.00
    07/03/2015 22:50      67    56.3      9.01        68.0      93.0      64.7       3       6      92      93    1011    0.00
    07/03/2015 23:00      66    56.4      9.01        67.9      93.0      64.7       2       3      92     112    1011    0.00
    07/03/2015 23:10      67    56.4      9.01        67.8      93.0      64.7       3       6      91      93    1011    0.00
    07/03/2015 23:20      69    56.5      9.01        67.3      93.0      64.7       3       6      79      68    1011    0.00
    07/03/2015 23:30      71    56.7      9.01        66.6      93.0      64.7       2       4      67      87    1011    0.00
    07/03/2015 23:40      71    56.7      9.01        66.4      93.0      64.7       2       4      63      55    1011    0.00
    07/03/2015 23:50      72    56.8      9.01        66.3      93.0      64.7       2       4      66      58    1011    0.00
    07/04/2015 00:00      72    56.8      9.01        66.1      93.0      64.7       1       3      50      56    1011    0.00
    07/04/2015 00:10      72    56.8      9.01        66.0      66.1      65.8       2       3      68      99    1011    0.00
    07/04/2015 00:20      73    56.8      9.01        65.8      66.1      65.6       1       3      76     104    1011    0.00
    07/04/2015 00:30      73    56.9      9.01        65.8      66.1      65.6       2       3      81      83    1011    0.00
    07/04/2015 00:40      73    56.8      9.01        65.7      66.1      65.5       0       2      80      96    1011    0.00
    07/04/2015 00:50      74    56.9      9.01        65.6      66.1      65.3       1       3     112      94    1011    0.00
    07/04/2015 01:00      75    56.8      9.01        65.1      66.1      64.7       2       3     147     152    1011    0.00
    07/04/2015 01:10      76    56.9      9.01        64.8      66.1      64.5       0       2     125     123    1011    0.00
    07/04/2015 01:20      76    56.9      9.01        64.7      66.1      64.5       0       2      90      15    1011    0.00
    07/04/2015 01:30      76    56.9      9.01        64.5      66.1      64.3       0       2     124     147    1011    0.00
    07/04/2015 01:40      76    57.0      9.01        64.6      66.1      64.3       0       2     113      70    1010    0.00
    07/04/2015 01:50      76    57.0      9.01        64.6      66.1      64.3       0       2      96     147    1010    0.00
    07/04/2015 02:00      76    56.9      9.01        64.5      66.1      64.2       0       2     144     143    1010    0.00
    07/04/2015 02:10      78    56.9      9.01        64.2      66.1      64.0       2       3     156     140    1010    0.00
    07/04/2015 02:20      78    56.9      9.01        64.0      66.1      63.8       2       3     152     144    1010    0.00